createdAt,value
2019-05-23T05:11:59.843Z,48.20
2019-05-23T05:14:28.725Z,46.50
2019-05-23T05:16:57.247Z,46.90
2019-05-23T05:19:25.742Z,47.10
2019-05-23T05:21:54.596Z,47.20
2019-05-23T05:24:23.338Z,47.30
2019-05-23T05:26:51.832Z,47.30
2019-05-23T05:29:20.928Z,47.50
2019-05-23T05:34:17.672Z,47.60
2019-05-23T05:36:46.342Z,47.60
2019-05-23T05:39:14.838Z,47.70
2019-05-23T05:41:43.364Z,47.70
2019-05-23T05:44:12.338Z,47.60
2019-05-23T05:46:40.864Z,47.60
2019-05-23T05:49:09.616Z,47.50
2019-05-23T05:51:38.355Z,47.50
2019-05-23T05:54:06.905Z,47.90
2019-05-23T05:56:35.382Z,48.40
2019-05-23T05:59:03.908Z,49.00
2019-05-23T06:01:34.354Z,49.40
2019-05-23T06:04:01.753Z,49.90
2019-05-23T06:06:35.976Z,49.60
2019-05-23T06:09:10.789Z,49.90
2019-05-23T06:11:39.527Z,49.60
2019-05-23T06:14:08.159Z,49.60
2019-05-23T06:16:36.832Z,49.50
2019-05-23T06:19:05.298Z,49.30
2019-05-23T06:21:34.133Z,49.60
2019-05-23T06:24:02.638Z,49.40
2019-05-23T06:26:31.122Z,49.20
2019-05-23T06:28:59.891Z,49.50
2019-05-23T06:31:28.387Z,49.10
2019-05-23T06:33:56.865Z,49.00
2019-05-23T06:36:25.620Z,49.10
2019-05-23T06:38:54.121Z,48.90
2019-05-23T06:41:22.881Z,48.70
2019-05-23T06:43:51.597Z,49.30
2019-05-23T06:46:20.055Z,48.80
2019-05-23T06:48:48.529Z,49.20
2019-05-23T06:51:17.853Z,49.30
2019-05-23T06:53:46.584Z,48.70
2019-05-23T06:56:15.075Z,48.70
2019-05-23T06:58:44.202Z,48.70
2019-05-23T07:01:12.939Z,48.70
2019-05-23T07:03:43.608Z,49.00
2019-05-23T07:06:10.318Z,49.10
2019-05-23T07:08:39.493Z,49.10
2019-05-23T07:11:08.242Z,49.80
2019-05-23T07:13:36.956Z,49.10
2019-05-23T07:16:05.404Z,49.00
2019-05-23T07:18:33.942Z,49.00
2019-05-23T07:21:03.227Z,48.90
2019-05-23T07:23:32.377Z,48.80
2019-05-23T07:26:01.446Z,48.70
2019-05-23T07:28:30.755Z,48.60
2019-05-23T07:30:59.483Z,48.50
2019-05-23T07:33:28.574Z,48.40
2019-05-23T07:35:57.439Z,48.40
2019-05-23T07:38:26.542Z,48.30
2019-05-23T07:40:55.214Z,48.10
2019-05-23T07:43:23.957Z,48.10
2019-05-23T07:45:55.273Z,48.10
2019-05-23T07:48:23.813Z,48.00
2019-05-23T07:50:52.556Z,48.10
2019-05-23T07:55:53.629Z,48.00
2019-05-23T07:58:22.869Z,47.60
2019-05-23T08:00:55.474Z,48.20
2019-05-23T08:03:26.233Z,47.90
2019-05-23T08:05:54.961Z,47.70
2019-05-23T08:08:24.080Z,47.80
2019-05-23T08:10:53.169Z,48.00
2019-05-23T08:13:22.297Z,48.10
2019-05-23T08:15:51.366Z,47.90
2019-05-23T08:20:48.726Z,47.90
2019-05-23T08:23:17.536Z,47.80
2019-05-23T08:28:14.295Z,48.00
2019-05-23T08:30:42.782Z,48.00
2019-05-23T08:33:11.291Z,47.70
2019-05-23T08:35:40.112Z,47.20
2019-05-23T08:38:08.833Z,47.50
2019-05-23T08:40:37.343Z,47.40
2019-05-23T08:43:06.139Z,47.30
2019-05-23T08:45:35.258Z,47.10
2019-05-23T08:48:04.216Z,46.70
2019-05-23T08:50:32.933Z,47.00
2019-05-23T08:53:01.862Z,46.80
2019-05-23T08:57:59.546Z,47.00
2019-05-23T09:00:29.216Z,46.90
2019-05-23T09:02:59.137Z,46.70
2019-05-23T09:10:24.330Z,46.80
2019-05-23T09:12:52.828Z,46.50
2019-05-23T09:15:21.757Z,46.20
2019-05-23T09:17:53.476Z,46.40
2019-05-23T09:20:19.562Z,46.30
2019-05-23T09:22:48.669Z,45.80
2019-05-23T09:25:17.171Z,45.80
2019-05-23T09:27:46.087Z,45.60
2019-05-23T09:30:14.684Z,46.20
2019-05-23T09:32:43.498Z,46.00
2019-05-23T09:35:21.073Z,46.60
2019-05-23T09:37:40.959Z,46.70
2019-05-23T09:40:09.852Z,46.50
2019-05-23T09:42:38.600Z,46.60
2019-05-23T09:45:07.324Z,46.50
2019-05-23T09:47:36.154Z,46.50
2019-05-23T09:50:04.952Z,45.80
2019-05-23T09:52:33.442Z,45.10
2019-05-23T09:57:30.624Z,45.40
2019-05-23T09:59:59.695Z,45.30
2019-05-23T10:09:54.566Z,45.10
2019-05-23T10:12:23.222Z,45.50
2019-05-23T10:14:51.710Z,45.80
2019-05-23T10:22:17.191Z,44.70
2019-05-23T10:24:45.938Z,44.00
2019-05-23T10:29:43.215Z,44.20
2019-05-23T10:32:11.659Z,44.30
2019-05-23T10:34:40.799Z,44.80
2019-05-23T10:37:10.480Z,44.90
2019-05-23T10:42:07.202Z,44.50
2019-05-23T10:44:36.320Z,44.20
2019-05-23T10:47:05.143Z,44.10
2019-05-23T10:49:34.265Z,44.50
2019-05-23T10:52:03.141Z,44.10
2019-05-23T10:54:31.875Z,44.60
2019-05-23T10:57:01.210Z,44.00
2019-05-23T10:59:29.964Z,44.60
2019-05-23T11:01:58.703Z,44.00
2019-05-23T11:04:27.189Z,44.50
2019-05-23T11:06:56.052Z,44.20
2019-05-23T11:09:37.135Z,44.50
2019-05-23T11:11:54.068Z,43.80
2019-05-23T11:14:23.099Z,43.40
2019-05-23T11:16:51.866Z,43.30
2019-05-23T11:19:21.191Z,44.40
2019-05-23T11:26:47.175Z,44.50
2019-05-23T11:29:15.923Z,44.30
2019-05-23T11:34:12.978Z,44.30
2019-05-23T11:36:41.700Z,44.60
2019-05-23T11:39:10.291Z,43.50
2019-05-23T11:41:39.379Z,44.10
2019-05-23T11:44:08.226Z,43.30
2019-05-23T11:46:37.099Z,43.20
2019-05-23T11:49:05.911Z,44.20
2019-05-23T11:51:34.936Z,43.30
2019-05-23T11:54:08.469Z,42.90
2019-05-23T11:56:32.333Z,43.70
2019-05-23T11:59:01.941Z,43.60
2019-05-23T12:01:37.427Z,43.40
2019-05-23T12:06:55.234Z,43.30
2019-05-23T12:09:14.847Z,42.90
2019-05-23T12:11:43.560Z,43.50
2019-05-23T12:14:12.537Z,43.00
2019-05-23T12:19:09.558Z,42.70
2019-05-23T12:21:38.651Z,43.30
2019-05-23T12:24:07.514Z,43.00
2019-05-23T12:26:36.248Z,43.00
2019-05-23T12:29:04.755Z,44.50
2019-05-23T12:31:33.861Z,44.20
2019-05-23T12:34:02.590Z,43.90
2019-05-23T12:36:31.690Z,43.60
2019-05-23T12:39:00.525Z,43.20
2019-05-23T12:41:29.266Z,43.50
2019-05-23T12:43:58.094Z,44.90
2019-05-23T12:46:26.819Z,44.40
2019-05-23T12:49:00.135Z,45.00
2019-05-23T12:51:30.479Z,45.20
2019-05-23T12:53:59.188Z,45.40
2019-05-23T12:58:56.392Z,45.60
2019-05-23T13:01:25.442Z,45.50
2019-05-23T13:03:54.561Z,45.80
2019-05-23T13:06:23.345Z,45.60
2019-05-23T13:08:52.672Z,45.80
2019-05-23T13:11:21.815Z,45.70
2019-05-23T13:13:50.270Z,45.70
2019-05-23T13:16:18.887Z,45.90
2019-05-23T13:18:47.634Z,45.80
2019-05-23T13:23:45.495Z,45.60
2019-05-23T13:26:14.398Z,45.20
2019-05-23T13:28:43.218Z,45.10
2019-05-23T13:31:12.344Z,44.60
2019-05-23T13:33:41.184Z,44.30
2019-05-23T13:38:38.823Z,44.10
2019-05-23T13:41:07.690Z,43.70
2019-05-23T13:43:36.432Z,43.70
2019-05-23T13:48:33.436Z,43.40
2019-05-23T13:51:02.181Z,43.90
2019-05-23T13:53:30.649Z,43.50
2019-05-23T13:55:59.143Z,43.20
2019-05-23T13:58:28.214Z,42.80
2019-05-23T14:00:57.134Z,42.80
2019-05-23T14:05:54.795Z,42.90
2019-05-23T14:10:51.791Z,43.00
2019-05-23T14:13:20.858Z,42.70
2019-05-23T14:15:49.567Z,42.80
2019-05-23T14:18:19.782Z,42.90
2019-05-23T14:20:48.741Z,42.80
2019-05-23T14:28:18.727Z,43.00
2019-05-23T14:30:55.873Z,43.00
2019-05-23T14:33:31.830Z,43.20
2019-05-23T14:36:01.138Z,43.00
2019-05-23T14:40:59.208Z,43.40
2019-05-23T14:43:27.702Z,43.40
2019-05-23T14:46:02.510Z,43.40
2019-05-23T14:48:38.474Z,43.50
2019-05-23T14:53:41.688Z,43.60
2019-05-23T14:56:10.723Z,42.90
2019-05-23T14:58:39.413Z,43.00
2019-05-23T15:01:07.890Z,42.70
2019-05-23T15:03:36.706Z,43.60
2019-05-23T15:06:05.476Z,43.20
2019-05-23T15:08:49.666Z,43.10
2019-05-23T15:13:31.293Z,43.20
2019-05-23T15:15:59.784Z,42.70
2019-05-23T15:18:28.618Z,42.50
2019-05-23T15:20:57.719Z,42.60
2019-05-23T15:25:54.456Z,43.10
2019-05-23T15:28:23.184Z,42.80
2019-05-23T15:30:51.673Z,42.80
2019-05-23T15:33:20.628Z,42.30
2019-05-23T15:35:49.614Z,43.00
2019-05-23T15:38:18.396Z,42.60
2019-05-23T15:40:47.223Z,43.00
2019-05-23T15:48:13.034Z,42.30
2019-05-23T15:50:45.853Z,42.40
2019-05-23T15:53:20.799Z,42.50
2019-05-23T15:56:56.690Z,42.40
2019-05-23T15:59:30.412Z,43.10
2019-05-23T16:02:06.801Z,42.80
2019-05-23T16:04:35.475Z,42.00
2019-05-23T16:09:32.233Z,42.20
2019-05-23T16:12:01.043Z,42.00
2019-05-23T16:14:29.627Z,42.30
2019-05-23T16:16:58.338Z,42.10
2019-05-23T16:19:27.096Z,41.90
2019-05-23T16:21:55.613Z,42.00
2019-05-23T16:24:24.259Z,41.60
2019-05-23T16:26:53.085Z,41.70
2019-05-23T16:29:22.157Z,41.70
2019-05-23T16:31:51.271Z,41.40
2019-05-23T16:34:20.199Z,41.30
2019-05-23T16:36:48.731Z,41.50
2019-05-23T16:39:17.449Z,41.90
2019-05-23T16:41:45.906Z,41.20
2019-05-23T16:44:14.667Z,41.30
2019-05-23T16:46:43.234Z,41.10
2019-05-23T16:49:11.945Z,41.20
2019-05-23T16:51:40.435Z,41.60
2019-05-23T16:54:09.250Z,40.90
2019-05-23T16:56:43.471Z,41.00
2019-05-23T16:59:18.711Z,40.90
2019-05-23T17:01:57.770Z,40.90
2019-05-23T17:04:25.717Z,41.20
2019-05-23T17:06:59.418Z,41.10
2019-05-23T17:09:32.482Z,41.00
2019-05-23T17:12:06.517Z,40.80
2019-05-23T17:14:39.766Z,40.60
2019-05-23T17:17:38.314Z,40.60
2019-05-23T17:19:55.048Z,40.60
2019-05-23T17:22:29.252Z,40.90
2019-05-23T17:25:03.607Z,40.30
2019-05-23T17:27:38.474Z,40.20
2019-05-23T17:30:11.582Z,40.50
2019-05-23T17:32:40.349Z,40.60
2019-05-23T17:35:09.103Z,40.20
2019-05-23T17:37:37.838Z,40.00
2019-05-23T17:40:23.221Z,40.10
2019-05-23T17:42:35.606Z,40.20
2019-05-23T17:45:04.480Z,40.10
2019-05-23T17:50:01.800Z,39.90
2019-05-23T17:52:30.295Z,39.90
2019-05-23T17:54:59.045Z,39.90
2019-05-23T17:57:27.539Z,40.20
2019-05-23T17:59:56.258Z,39.80
2019-05-23T18:02:25.170Z,39.80
2019-05-23T18:07:22.367Z,39.70
2019-05-23T18:09:51.495Z,39.60
2019-05-23T18:12:20.669Z,39.70
2019-05-23T18:14:50.327Z,39.80
2019-05-23T18:17:19.062Z,39.60
2019-05-23T18:19:48.036Z,39.70
2019-05-23T18:22:16.927Z,39.60
2019-05-23T18:24:45.754Z,39.60
2019-05-23T18:27:14.227Z,40.00
2019-05-23T18:29:42.830Z,39.90
2019-05-23T18:32:14.941Z,39.90
2019-05-23T18:37:11.929Z,40.00
2019-05-23T18:39:40.685Z,41.10
2019-05-23T18:42:09.543Z,41.20
2019-05-23T18:47:09.984Z,41.60
2019-05-23T18:52:07.233Z,41.60
2019-05-23T18:54:35.986Z,41.20
2019-05-23T18:57:04.792Z,42.10
2019-05-23T18:59:33.675Z,42.50
2019-05-23T19:02:02.173Z,41.40
2019-05-23T19:04:31.474Z,41.20
2019-05-23T19:07:00.205Z,41.10
2019-05-23T19:09:28.966Z,41.30
2019-05-23T19:14:26.089Z,42.30
2019-05-23T19:16:55.336Z,41.60
2019-05-23T19:19:24.444Z,41.70
2019-05-23T19:21:53.139Z,41.70
2019-05-23T19:24:21.993Z,41.80
2019-05-23T19:29:19.608Z,42.00
2019-05-23T19:31:48.113Z,42.70
2019-05-23T19:34:17.397Z,41.90
2019-05-23T19:36:46.204Z,41.60
2019-05-23T19:39:14.700Z,41.50
2019-05-23T19:41:43.488Z,41.60
2019-05-23T19:44:12.335Z,41.60
2019-05-23T19:46:41.077Z,41.60
2019-05-23T19:51:38.129Z,41.80
2019-05-23T19:54:06.628Z,41.80
2019-05-23T19:59:03.604Z,41.80
2019-05-23T20:01:36.702Z,42.00
2019-05-23T20:04:05.271Z,42.00
2019-05-23T20:06:34.028Z,41.90
2019-05-23T20:09:02.516Z,42.10
2019-05-23T20:16:28.600Z,42.30
2019-05-23T20:18:57.100Z,43.00
2019-05-23T20:21:25.857Z,42.30
2019-05-23T20:23:54.956Z,42.30
2019-05-23T20:26:23.998Z,42.30
2019-05-23T20:28:53.091Z,42.40
2019-05-23T20:31:21.807Z,42.40
2019-05-23T20:33:50.563Z,42.30
2019-05-23T20:36:19.414Z,42.40
2019-05-23T20:38:48.122Z,42.40
2019-05-23T20:41:16.621Z,42.30
2019-05-23T20:43:45.698Z,42.30
2019-05-23T20:46:14.428Z,42.30
2019-05-23T20:51:11.522Z,42.60
2019-05-23T20:53:39.995Z,42.70
2019-05-23T20:56:08.810Z,42.80
